createdAt,value
2022-12-22T00:00:22.845Z,100025.44
2022-12-22T00:03:08.872Z,100029.91
2022-12-22T00:05:55.328Z,100022.44
2022-12-22T00:08:41.713Z,100031.94
2022-12-22T00:11:32.056Z,100027.34
2022-12-22T00:14:18.622Z,100032.47
2022-12-22T00:17:05.806Z,100032.50
2022-12-22T00:19:54.476Z,100032.94
2022-12-22T00:22:45.278Z,100027.00
2022-12-22T00:25:34.702Z,100026.78
2022-12-22T00:28:24.412Z,100013.50
2022-12-22T00:31:10.551Z,100007.63
2022-12-22T00:33:57.872Z,100004.06
2022-12-22T00:36:44.008Z,100002.38
2022-12-22T00:39:32.770Z,100006.66
2022-12-22T00:42:18.860Z,100009.63
2022-12-22T00:45:05.048Z,100004.84
2022-12-22T00:47:51.328Z,100007.31
2022-12-22T00:50:38.073Z,99991.88
2022-12-22T00:53:24.416Z,99991.00
2022-12-22T00:56:10.688Z,99992.44
2022-12-22T00:58:57.025Z,99992.34
2022-12-22T01:01:43.511Z,99986.41
2022-12-22T01:04:30.155Z,99992.03
2022-12-22T01:07:16.952Z,99981.72
2022-12-22T01:10:08.083Z,99986.41
2022-12-22T01:12:57.372Z,99978.25
2022-12-22T01:15:46.087Z,99979.22
2022-12-22T01:18:32.931Z,99974.41
2022-12-22T01:21:18.968Z,99979.84
2022-12-22T01:24:05.756Z,99975.81
2022-12-22T01:26:51.904Z,99975.34
2022-12-22T01:29:38.063Z,99978.56
2022-12-22T01:32:33.467Z,99983.53
2022-12-22T01:35:19.502Z,99964.06
2022-12-22T01:38:05.494Z,99965.81
2022-12-22T01:40:51.502Z,99958.50
2022-12-22T01:43:46.318Z,99958.63
2022-12-22T01:46:47.476Z,99948.47
2022-12-22T01:49:40.257Z,99943.38
2022-12-22T01:52:29.898Z,99951.97
2022-12-22T01:55:23.358Z,99943.28
2022-12-22T01:58:10.096Z,99939.69
2022-12-22T02:00:56.089Z,99944.97
2022-12-22T02:03:42.321Z,99953.97
2022-12-22T02:06:59.495Z,99949.59
2022-12-22T02:10:08.264Z,99943.72
2022-12-22T02:13:32.593Z,99941.78
2022-12-22T02:16:29.571Z,99933.06
2022-12-22T02:20:34.315Z,99930.94
2022-12-22T02:23:53.825Z,99935.66
2022-12-22T02:26:56.425Z,99931.56
2022-12-22T02:29:52.952Z,99923.41
2022-12-22T02:32:38.844Z,99919.94
2022-12-22T02:35:34.095Z,99915.34
2022-12-22T02:38:45.896Z,99920.13
2022-12-22T02:41:58.167Z,99919.63
2022-12-22T02:45:09.699Z,99925.69
2022-12-22T02:48:09.469Z,99913.50
2022-12-22T02:51:11.305Z,99923.41
2022-12-22T02:53:59.212Z,99916.94
2022-12-22T02:56:45.776Z,99922.53
2022-12-22T02:59:32.040Z,99921.69
2022-12-22T03:02:18.375Z,99928.53
2022-12-22T03:05:04.759Z,99935.13
2022-12-22T03:07:50.834Z,99932.09
2022-12-22T03:10:36.802Z,99930.66
2022-12-22T03:13:22.737Z,99923.63
2022-12-22T03:16:08.634Z,99923.28
2022-12-22T03:18:55.196Z,99926.97
2022-12-22T03:21:41.497Z,99915.75
2022-12-22T03:24:27.762Z,99919.13
2022-12-22T03:26:55.377Z,99923.50
2022-12-22T03:29:22.940Z,99923.28
2022-12-22T03:31:50.494Z,99916.69
2022-12-22T03:34:18.203Z,99912.31
2022-12-22T03:36:45.825Z,99918.44
2022-12-22T03:39:14.771Z,99907.72
2022-12-22T03:42:00.820Z,99905.84
2022-12-22T03:44:46.680Z,99900.56
2022-12-22T03:47:14.412Z,99904.06
2022-12-22T03:49:41.976Z,99906.34
2022-12-22T03:52:10.178Z,99905.56
2022-12-22T03:54:37.645Z,99910.00
2022-12-22T03:57:05.191Z,99909.69
2022-12-22T03:59:32.756Z,99908.19
2022-12-22T04:02:00.504Z,99913.81
2022-12-22T04:04:28.174Z,99917.81
2022-12-22T04:06:56.369Z,99908.97
2022-12-22T04:09:24.985Z,99914.84
2022-12-22T04:12:11.414Z,99911.44
2022-12-22T04:14:38.881Z,99908.94
2022-12-22T04:17:09.800Z,99919.84
2022-12-22T04:19:37.380Z,99920.34
2022-12-22T04:22:05.318Z,99922.44
2022-12-22T04:24:32.785Z,99922.22
2022-12-22T04:27:00.488Z,99914.09
2022-12-22T04:29:28.017Z,99916.00
2022-12-22T04:31:58.699Z,99910.34
2022-12-22T04:34:26.308Z,99911.84
2022-12-22T04:37:04.441Z,99901.78
2022-12-22T04:39:44.796Z,99902.44
2022-12-22T04:42:12.337Z,99908.28
2022-12-22T04:44:39.908Z,99904.88
2022-12-22T04:47:07.610Z,99904.41
2022-12-22T04:49:35.071Z,99906.38
2022-12-22T04:52:02.581Z,99905.13
2022-12-22T04:54:30.212Z,99911.63
2022-12-22T04:56:57.900Z,99910.19
2022-12-22T04:59:25.606Z,99906.69
2022-12-22T05:01:53.154Z,99904.19
2022-12-22T05:04:23.822Z,99909.31
2022-12-22T05:06:51.641Z,99906.25
2022-12-22T05:09:19.079Z,99904.78
2022-12-22T05:11:46.604Z,99898.25
2022-12-22T05:14:14.176Z,99902.88
2022-12-22T05:16:41.740Z,99902.69
2022-12-22T05:19:09.382Z,99902.44
2022-12-22T05:21:36.915Z,99906.84
2022-12-22T05:24:04.833Z,99907.09
2022-12-22T05:26:32.306Z,99910.34
2022-12-22T05:29:00.181Z,99914.25
2022-12-22T05:31:27.863Z,99914.25
2022-12-22T05:33:55.869Z,99916.59
2022-12-22T05:36:23.308Z,99901.91
2022-12-22T05:38:50.803Z,99912.59
2022-12-22T05:41:18.226Z,99919.19
2022-12-22T05:43:45.710Z,99920.47
2022-12-22T05:46:13.234Z,99914.34
2022-12-22T05:48:41.013Z,99918.25
2022-12-22T05:51:09.885Z,99913.03
2022-12-22T05:53:38.504Z,99918.34
2022-12-22T05:56:07.252Z,99922.31
2022-12-22T05:58:37.711Z,99923.19
2022-12-22T06:01:05.956Z,99917.19
2022-12-22T06:03:35.009Z,99923.47
2022-12-22T06:06:02.831Z,99918.75
2022-12-22T06:08:30.471Z,99920.59
2022-12-22T06:10:59.431Z,99921.59
2022-12-22T06:13:29.908Z,99922.59
2022-12-22T06:15:57.492Z,99922.19
2022-12-22T06:18:25.156Z,99932.44
2022-12-22T06:20:53.654Z,99936.06
2022-12-22T06:23:22.470Z,99934.56
2022-12-22T06:26:03.095Z,99935.75
2022-12-22T06:28:31.190Z,99932.34
2022-12-22T06:30:59.510Z,99935.03
2022-12-22T06:33:27.059Z,99943.16
2022-12-22T06:35:58.959Z,99932.78
2022-12-22T06:38:28.610Z,99938.19
2022-12-22T06:40:56.882Z,99939.03
2022-12-22T06:43:24.618Z,99941.56
2022-12-22T06:45:52.708Z,99931.75
2022-12-22T06:48:20.746Z,99937.56
2022-12-22T06:50:48.331Z,99940.16
2022-12-22T06:53:19.358Z,99936.09
2022-12-22T06:55:46.963Z,99939.91
2022-12-22T06:58:14.604Z,99939.03
2022-12-22T07:00:43.402Z,99936.56
2022-12-22T07:03:11.199Z,99937.44
2022-12-22T07:05:39.003Z,99940.22
2022-12-22T07:08:09.171Z,99935.06
2022-12-22T07:10:55.817Z,99939.66
2022-12-22T07:13:24.525Z,99941.25
2022-12-22T07:16:00.043Z,99940.31
2022-12-22T07:18:32.217Z,99946.66
2022-12-22T07:21:02.332Z,99950.28
2022-12-22T07:23:30.740Z,99947.22
2022-12-22T07:25:59.154Z,99955.63
2022-12-22T07:28:26.911Z,99946.47
2022-12-22T07:30:56.751Z,99951.16
2022-12-22T07:33:25.372Z,99951.66
2022-12-22T07:36:15.802Z,99951.19
2022-12-22T07:38:48.494Z,99947.56
2022-12-22T07:41:37.539Z,99956.94
2022-12-22T07:44:07.731Z,99953.88
2022-12-22T07:46:38.881Z,99961.22
2022-12-22T07:49:28.972Z,99950.69
2022-12-22T07:52:01.939Z,99955.44
2022-12-22T07:54:30.175Z,99959.75
2022-12-22T07:56:58.260Z,99959.28
2022-12-22T07:59:25.810Z,99955.69
2022-12-22T08:01:53.543Z,99955.78
2022-12-22T08:04:23.272Z,99966.47
2022-12-22T08:06:50.900Z,99953.72
2022-12-22T08:09:21.744Z,99960.84
2022-12-22T08:11:50.277Z,99956.31
2022-12-22T08:14:17.894Z,99950.72
2022-12-22T08:16:45.475Z,99951.69
2022-12-22T08:19:14.035Z,99950.13
2022-12-22T08:21:44.193Z,99943.19
2022-12-22T08:24:17.740Z,99950.72
2022-12-22T08:26:51.211Z,99956.03
2022-12-22T08:29:26.731Z,99952.25
2022-12-22T08:31:56.059Z,99955.66
2022-12-22T08:34:23.666Z,99952.00
2022-12-22T08:36:55.508Z,99952.00
2022-12-22T08:39:24.954Z,99945.47
2022-12-22T08:41:52.791Z,99941.75
2022-12-22T08:44:25.036Z,99935.16
2022-12-22T08:46:54.490Z,99935.41
2022-12-22T08:49:23.354Z,99936.53
2022-12-22T08:51:51.463Z,99939.13
2022-12-22T08:54:19.632Z,99931.63
2022-12-22T08:56:47.299Z,99927.63
2022-12-22T08:59:15.625Z,99923.22
2022-12-22T09:01:48.212Z,99924.03
2022-12-22T09:04:19.079Z,99915.69
2022-12-22T09:06:46.881Z,99907.63
2022-12-22T09:09:16.638Z,99897.69
2022-12-22T09:11:44.976Z,99903.63
2022-12-22T09:14:13.616Z,99896.28
2022-12-22T09:16:41.520Z,99893.34
2022-12-22T09:19:09.463Z,99896.66
2022-12-22T09:21:38.161Z,99889.59
2022-12-22T09:24:07.689Z,99891.00
2022-12-22T09:26:35.901Z,99886.44
2022-12-22T09:29:04.235Z,99884.00
2022-12-22T09:31:32.496Z,99884.16
2022-12-22T09:34:00.444Z,99890.19
2022-12-22T09:36:31.719Z,99882.31
2022-12-22T09:38:59.597Z,99883.50
2022-12-22T09:41:43.814Z,99885.72
2022-12-22T09:44:33.092Z,99879.59
2022-12-22T09:47:04.820Z,99869.47
2022-12-22T09:49:32.551Z,99868.25
2022-12-22T09:52:03.719Z,99869.47
2022-12-22T09:54:32.038Z,99867.84
2022-12-22T09:56:59.836Z,99860.25
2022-12-22T09:59:30.226Z,99860.75
2022-12-22T10:02:32.973Z,99855.91
2022-12-22T10:05:45.296Z,99849.56
2022-12-22T10:08:17.020Z,99845.16
2022-12-22T10:10:44.569Z,99833.41
2022-12-22T10:13:19.688Z,99836.09
2022-12-22T10:15:48.118Z,99825.34
2022-12-22T10:18:26.303Z,99824.47
2022-12-22T10:21:11.878Z,99819.19
2022-12-22T10:23:45.451Z,99814.25
2022-12-22T10:26:27.989Z,99809.28
2022-12-22T10:29:18.370Z,99807.16
2022-12-22T10:32:04.433Z,99805.34
2022-12-22T10:34:32.633Z,99804.69
2022-12-22T10:37:06.194Z,99800.56
2022-12-22T10:39:40.680Z,99796.84
2022-12-22T10:42:13.718Z,99795.16
2022-12-22T10:44:48.018Z,99789.00
2022-12-22T10:47:20.574Z,99786.28
2022-12-22T10:52:31.035Z,99788.56
2022-12-22T10:55:29.339Z,99780.91
2022-12-22T10:58:16.066Z,99776.63
2022-12-22T11:00:45.212Z,99774.81
2022-12-22T11:03:22.612Z,99765.09
2022-12-22T11:05:52.818Z,99766.47
2022-12-22T11:08:21.945Z,99758.03
2022-12-22T11:11:19.216Z,99759.00
2022-12-22T11:14:23.357Z,99755.69
2022-12-22T11:17:04.184Z,99753.06
2022-12-22T11:19:34.506Z,99739.63
2022-12-22T11:22:38.023Z,99739.28
2022-12-22T11:25:37.913Z,99727.38
2022-12-22T11:28:21.362Z,99732.75
2022-12-22T11:31:12.885Z,99730.44
2022-12-22T11:34:06.433Z,99725.25
2022-12-22T11:37:10.181Z,99719.97
2022-12-22T11:39:46.243Z,99718.88
2022-12-22T11:42:55.472Z,99724.91
2022-12-22T11:45:48.563Z,99723.53
2022-12-22T11:48:53.603Z,99715.00
2022-12-22T11:51:39.856Z,99716.66
2022-12-22T11:54:32.749Z,99720.66
2022-12-22T11:57:40.269Z,99715.03
2022-12-22T12:00:11.022Z,99719.81
2022-12-22T12:03:19.528Z,99714.22
2022-12-22T12:06:54.246Z,99712.97
2022-12-22T12:10:16.387Z,99713.31
2022-12-22T12:12:56.811Z,99703.34
2022-12-22T12:15:31.884Z,99706.66
2022-12-22T12:18:52.685Z,99706.66
2022-12-22T12:21:45.835Z,99701.31
2022-12-22T12:24:25.439Z,99700.25
2022-12-22T12:27:26.847Z,99697.47
2022-12-22T12:33:36.806Z,99692.47
2022-12-22T12:36:12.454Z,99690.00
2022-12-22T12:39:08.825Z,99692.44
2022-12-22T12:41:51.734Z,99693.47
2022-12-22T12:44:25.741Z,99697.69
2022-12-22T12:46:59.893Z,99695.44
2022-12-22T12:49:36.290Z,99706.00
2022-12-22T12:52:09.372Z,99701.72
2022-12-22T12:54:43.385Z,99706.47
2022-12-22T12:57:30.385Z,99701.53
2022-12-22T13:00:00.410Z,99697.56
2022-12-22T13:02:28.302Z,99707.91
2022-12-22T13:05:02.928Z,99697.00
2022-12-22T13:08:07.770Z,99695.59
2022-12-22T13:10:55.120Z,99705.59
2022-12-22T13:13:25.471Z,99698.00
2022-12-22T13:16:02.367Z,99697.91
2022-12-22T13:18:40.739Z,99698.81
2022-12-22T13:21:52.175Z,99697.34
2022-12-22T13:24:30.115Z,99695.00
2022-12-22T13:27:05.287Z,99697.75
2022-12-22T13:29:46.906Z,99704.28
2022-12-22T13:32:30.486Z,99695.81
2022-12-22T13:35:47.848Z,99697.81
2022-12-22T13:38:33.176Z,99685.19
2022-12-22T13:41:04.894Z,99690.81
2022-12-22T13:43:33.884Z,99691.88
2022-12-22T13:46:04.328Z,99697.75
2022-12-22T13:48:43.610Z,99682.28
2022-12-22T13:51:22.212Z,99683.22
2022-12-22T13:54:08.371Z,99677.94
2022-12-22T13:56:47.476Z,99684.41
2022-12-22T13:59:43.625Z,99673.69
2022-12-22T14:02:18.600Z,99679.41
2022-12-22T14:05:06.287Z,99683.34
2022-12-22T14:07:34.174Z,99682.88
2022-12-22T14:10:01.803Z,99680.28
2022-12-22T14:12:42.760Z,99680.50
2022-12-22T14:15:18.897Z,99677.31
2022-12-22T14:17:53.930Z,99668.22
2022-12-22T14:20:35.764Z,99671.22
2022-12-22T14:23:27.083Z,99666.69
2022-12-22T14:25:56.859Z,99660.13
2022-12-22T14:28:42.904Z,99662.19
2022-12-22T14:31:13.500Z,99661.03
2022-12-22T14:33:57.238Z,99655.41
2022-12-22T14:36:26.984Z,99657.06
2022-12-22T14:39:07.143Z,99662.00
2022-12-22T14:41:53.469Z,99650.53
2022-12-22T14:44:43.998Z,99657.41
2022-12-22T14:47:20.550Z,99653.28
2022-12-22T14:49:57.024Z,99650.47
2022-12-22T14:52:45.438Z,99653.78
2022-12-22T14:55:34.648Z,99657.66
2022-12-22T14:58:11.341Z,99654.22
2022-12-22T15:00:46.228Z,99651.59
2022-12-22T15:03:37.461Z,99661.28
2022-12-22T15:06:25.531Z,99665.00
2022-12-22T15:09:07.589Z,99658.97
2022-12-22T15:11:41.280Z,99662.56
2022-12-22T15:14:26.169Z,99653.94
2022-12-22T15:17:01.819Z,99654.88
2022-12-22T15:19:39.682Z,99659.78
2022-12-22T15:22:11.985Z,99658.63
2022-12-22T15:24:39.701Z,99657.41
2022-12-22T15:27:07.230Z,99660.84
2022-12-22T15:29:34.940Z,99654.75
2022-12-22T15:32:02.508Z,99659.06
2022-12-22T15:34:32.681Z,99660.47
2022-12-22T15:37:00.488Z,99659.97
2022-12-22T15:39:28.124Z,99653.56
2022-12-22T15:41:55.857Z,99651.03
2022-12-22T15:44:23.469Z,99651.66
2022-12-22T15:46:58.879Z,99654.31
2022-12-22T15:49:29.898Z,99658.59
2022-12-22T15:52:02.051Z,99655.03
2022-12-22T15:54:33.203Z,99651.94
2022-12-22T15:57:01.816Z,99653.56
2022-12-22T15:59:31.090Z,99661.91
2022-12-22T16:02:01.807Z,99662.16
2022-12-22T16:04:30.579Z,99651.28
2022-12-22T16:06:59.831Z,99653.63
2022-12-22T16:09:38.189Z,99664.34
2022-12-22T16:12:18.989Z,99663.84
2022-12-22T16:14:53.449Z,99659.47
2022-12-22T16:17:26.240Z,99660.03
2022-12-22T16:19:55.778Z,99655.63
2022-12-22T16:22:34.775Z,99659.56
2022-12-22T16:25:09.713Z,99661.88
2022-12-22T16:27:38.695Z,99665.25
2022-12-22T16:30:20.059Z,99673.59
2022-12-22T16:32:49.441Z,99669.47
2022-12-22T16:35:33.542Z,99675.69
2022-12-22T16:38:42.276Z,99669.47
2022-12-22T16:41:26.760Z,99668.47
2022-12-22T16:44:05.507Z,99666.41
2022-12-22T16:46:40.140Z,99671.34
2022-12-22T16:49:10.339Z,99677.09
2022-12-22T16:51:49.012Z,99679.97
2022-12-22T16:54:17.482Z,99677.09
2022-12-22T16:56:48.146Z,99686.44
2022-12-22T16:59:18.423Z,99676.81
2022-12-22T17:01:54.520Z,99677.84
2022-12-22T17:04:52.130Z,99682.03
2022-12-22T17:07:20.305Z,99684.63
2022-12-22T17:09:57.579Z,99683.31
2022-12-22T17:12:30.253Z,99686.94
2022-12-22T17:15:00.287Z,99687.47
2022-12-22T17:17:33.116Z,99688.78
2022-12-22T17:20:05.438Z,99691.09
2022-12-22T17:22:35.760Z,99688.75
2022-12-22T17:25:07.987Z,99690.03
2022-12-22T17:27:42.552Z,99688.75
2022-12-22T17:30:25.994Z,99683.56
2022-12-22T17:32:55.326Z,99689.00
2022-12-22T17:35:29.010Z,99683.53
2022-12-22T17:38:17.903Z,99685.84
2022-12-22T17:40:47.066Z,99683.22
2022-12-22T17:43:20.223Z,99686.56
2022-12-22T17:45:50.692Z,99682.69
2022-12-22T17:48:18.616Z,99683.66
2022-12-22T17:50:50.800Z,99696.84
2022-12-22T17:53:41.999Z,99693.72
2022-12-22T17:56:24.065Z,99680.75
2022-12-22T17:58:55.989Z,99678.38
2022-12-22T18:01:32.128Z,99686.47
2022-12-22T18:04:03.138Z,99676.59
2022-12-22T18:06:48.409Z,99677.59
2022-12-22T18:09:22.242Z,99672.94
2022-12-22T18:11:51.136Z,99679.22
2022-12-22T18:14:22.630Z,99671.88
2022-12-22T18:16:50.817Z,99673.94
2022-12-22T18:19:28.122Z,99672.88
2022-12-22T18:22:21.003Z,99678.03
2022-12-22T18:24:53.241Z,99676.00
2022-12-22T18:27:22.365Z,99680.50
2022-12-22T18:29:51.148Z,99677.34
2022-12-22T18:32:27.511Z,99668.19
2022-12-22T18:34:58.602Z,99680.31
2022-12-22T18:37:29.906Z,99682.13
2022-12-22T18:40:26.249Z,99687.56
2022-12-22T18:42:59.680Z,99683.84
2022-12-22T18:45:32.048Z,99687.41
2022-12-22T18:48:07.689Z,99687.91
2022-12-22T18:50:35.725Z,99691.78
2022-12-22T18:53:27.536Z,99691.19
2022-12-22T18:55:59.594Z,99688.06
2022-12-22T18:58:29.105Z,99689.56
2022-12-22T19:01:04.720Z,99686.28
2022-12-22T19:03:35.793Z,99692.97
2022-12-22T19:06:08.964Z,99694.81
2022-12-22T19:08:45.643Z,99688.03
2022-12-22T19:11:24.762Z,99700.38
2022-12-22T19:13:55.684Z,99699.06
2022-12-22T19:16:50.039Z,99693.09
2022-12-22T19:19:24.222Z,99695.28
2022-12-22T19:21:55.779Z,99678.06
2022-12-22T19:24:26.673Z,99679.28
2022-12-22T19:27:03.597Z,99676.22
2022-12-22T19:29:31.954Z,99678.28
2022-12-22T19:32:07.198Z,99668.53
2022-12-22T19:34:35.018Z,99673.38
2022-12-22T19:37:03.634Z,99678.00
2022-12-22T19:39:31.303Z,99666.72
2022-12-22T19:41:59.863Z,99671.47
2022-12-22T19:44:31.016Z,99663.72
2022-12-22T19:47:00.895Z,99669.09
2022-12-22T19:49:29.690Z,99662.50
2022-12-22T19:51:58.124Z,99671.53
2022-12-22T19:54:26.113Z,99675.56
2022-12-22T19:56:59.446Z,99672.34
2022-12-22T19:59:49.762Z,99671.09
2022-12-22T20:02:29.539Z,99667.97
2022-12-22T20:05:02.525Z,99677.84
2022-12-22T20:07:39.107Z,99676.38
2022-12-22T20:10:09.994Z,99685.47
2022-12-22T20:12:42.398Z,99682.94
2022-12-22T20:15:21.796Z,99681.59
2022-12-22T20:17:52.165Z,99675.44
2022-12-22T20:20:30.487Z,99679.69
2022-12-22T20:23:07.377Z,99680.72
2022-12-22T20:25:42.606Z,99677.13
2022-12-22T20:28:34.540Z,99676.81
2022-12-22T20:31:03.292Z,99683.59
2022-12-22T20:33:34.321Z,99685.41
2022-12-22T20:36:04.166Z,99688.59
2022-12-22T20:38:42.192Z,99689.56
2022-12-22T20:41:10.855Z,99684.13
2022-12-22T20:43:39.671Z,99687.38
2022-12-22T20:46:27.638Z,99685.59
2022-12-22T20:49:04.562Z,99682.16
2022-12-22T20:51:40.516Z,99675.25
2022-12-22T20:54:09.707Z,99675.25
2022-12-22T20:56:39.793Z,99682.34
2022-12-22T20:59:22.825Z,99687.72
2022-12-22T21:01:53.022Z,99690.50
2022-12-22T21:04:22.369Z,99694.56
2022-12-22T21:06:56.408Z,99693.94
2022-12-22T21:09:25.616Z,99691.63
2022-12-22T21:12:13.130Z,99692.69
2022-12-22T21:14:40.763Z,99698.25
2022-12-22T21:17:18.053Z,99698.31
2022-12-22T21:19:46.941Z,99701.38
2022-12-22T21:22:15.883Z,99701.50
2022-12-22T21:24:44.008Z,99704.09
2022-12-22T21:27:22.515Z,99701.19
2022-12-22T21:29:50.004Z,99701.38
2022-12-22T21:32:37.569Z,99703.22
2022-12-22T21:35:08.468Z,99685.63
2022-12-22T21:37:36.230Z,99685.69
2022-12-22T21:40:04.068Z,99684.06
2022-12-22T21:42:31.678Z,99683.13
2022-12-22T21:45:00.660Z,99683.19
2022-12-22T21:47:28.185Z,99669.84
2022-12-22T21:49:55.719Z,99669.59
2022-12-22T21:52:23.250Z,99663.59
2022-12-22T21:54:51.892Z,99663.22
2022-12-22T21:57:20.817Z,99659.88
2022-12-22T21:59:48.405Z,99654.25
2022-12-22T22:02:18.986Z,99652.47
2022-12-22T22:04:52.056Z,99657.09
2022-12-22T22:07:22.424Z,99657.94
2022-12-22T22:09:49.944Z,99656.16
2022-12-22T22:12:32.503Z,99643.47
2022-12-22T22:15:01.965Z,99640.28
2022-12-22T22:17:29.764Z,99646.91
2022-12-22T22:19:57.288Z,99639.56
2022-12-22T22:22:25.795Z,99638.22
2022-12-22T22:24:53.810Z,99640.97
2022-12-22T22:27:21.494Z,99632.59
2022-12-22T22:29:49.182Z,99638.16
2022-12-22T22:32:17.081Z,99638.38
2022-12-22T22:34:44.599Z,99632.13
2022-12-22T22:37:12.182Z,99630.56
2022-12-22T22:39:39.753Z,99625.22
2022-12-22T22:42:07.667Z,99630.81
2022-12-22T22:44:35.171Z,99630.97
2022-12-22T22:47:02.811Z,99621.59
2022-12-22T22:49:30.425Z,99627.13
2022-12-22T22:51:57.956Z,99623.78
2022-12-22T22:54:25.587Z,99621.03
2022-12-22T22:56:53.962Z,99623.69
2022-12-22T22:59:21.475Z,99624.56
2022-12-22T23:01:49.032Z,99622.00
2022-12-22T23:04:16.776Z,99613.72
2022-12-22T23:06:44.882Z,99617.13
2022-12-22T23:09:12.450Z,99605.91
2022-12-22T23:11:39.922Z,99609.94
2022-12-22T23:14:07.483Z,99608.47
2022-12-22T23:16:38.466Z,99604.09
2022-12-22T23:19:07.285Z,99602.13
2022-12-22T23:21:35.232Z,99609.03
2022-12-22T23:24:05.737Z,99607.78
2022-12-22T23:26:33.497Z,99607.25
2022-12-22T23:29:03.740Z,99604.25
2022-12-22T23:31:34.000Z,99603.00
2022-12-22T23:34:01.748Z,99595.78
2022-12-22T23:36:29.346Z,99599.72
2022-12-22T23:38:56.871Z,99597.41
2022-12-22T23:41:28.505Z,99591.38
2022-12-22T23:43:57.970Z,99592.63
2022-12-22T23:46:25.619Z,99590.75
2022-12-22T23:48:57.447Z,99590.97
2022-12-22T23:51:28.801Z,99586.06
2022-12-22T23:53:58.459Z,99578.19
2022-12-22T23:56:26.151Z,99575.53
2022-12-22T23:58:55.144Z,99577.03
